sensor_id;sensor_type;location;lat;lon;timestamp;pressure;altitude;pressure_sealevel;temperature;humidity
51452;BME280;37521;52.020;-1.740;2023-08-01T00:00:10;98405.47;;;11.28;100.00
51452;BME280;37521;52.020;-1.740;2023-08-01T00:02:38;98402.22;;;11.25;100.00
51452;BME280;37521;52.020;-1.740;2023-08-01T00:05:10;98403.28;;;11.22;100.00
51452;BME280;37521;52.020;-1.740;2023-08-01T00:07:40;98403.50;;;11.19;100.00
51452;BME280;37521;52.020;-1.740;2023-08-01T00:10:09;98403.50;;;11.19;100.00
51452;BME280;37521;52.020;-1.740;2023-08-01T00:12:38;98400.75;;;11.21;100.00
51452;BME280;37521;52.020;-1.740;2023-08-01T00:15:08;98395.59;;;11.19;100.00
51452;BME280;37521;52.020;-1.740;2023-08-01T00:17:36;98403.50;;;11.19;100.00
51452;BME280;37521;52.020;-1.740;2023-08-01T00:20:06;98398.13;;;11.21;100.00
51452;BME280;37521;52.020;-1.740;2023-08-01T00:22:35;98400.63;;;11.22;100.00
51452;BME280;37521;52.020;-1.740;2023-08-01T00:25:06;98400.63;;;11.22;100.00
51452;BME280;37521;52.020;-1.740;2023-08-01T00:27:35;98400.63;;;11.22;100.00
51452;BME280;37521;52.020;-1.740;2023-08-01T00:30:07;98395.59;;;11.19;100.00
51452;BME280;37521;52.020;-1.740;2023-08-01T00:32:36;98395.81;;;11.16;100.00
51452;BME280;37521;52.020;-1.740;2023-08-01T00:35:05;98394.00;;;11.16;100.00
51452;BME280;37521;52.020;-1.740;2023-08-01T00:37:34;98401.72;;;11.19;100.00
51452;BME280;37521;52.020;-1.740;2023-08-01T00:40:05;98401.59;;;11.21;100.00
51452;BME280;37521;52.020;-1.740;2023-08-01T00:42:35;98403.50;;;11.19;100.00
51452;BME280;37521;52.020;-1.740;2023-08-01T00:45:06;98408.56;;;11.22;100.00
51452;BME280;37521;52.020;-1.740;2023-08-01T00:47:35;98403.28;;;11.22;100.00
51452;BME280;37521;52.020;-1.740;2023-08-01T00:50:04;98408.56;;;11.22;100.00
51452;BME280;37521;52.020;-1.740;2023-08-01T00:52:34;98410.47;;;11.20;100.00
51452;BME280;37521;52.020;-1.740;2023-08-01T00:55:05;98413.97;;;11.21;100.00
51452;BME280;37521;52.020;-1.740;2023-08-01T00:57:34;98414.94;;;11.19;100.00
51452;BME280;37521;52.020;-1.740;2023-08-01T01:00:03;98415.13;;;11.16;100.00
51452;BME280;37521;52.020;-1.740;2023-08-01T01:02:32;98417.69;;;11.18;100.00
51452;BME280;37521;52.020;-1.740;2023-08-01T01:05:01;98415.13;;;11.16;100.00
51452;BME280;37521;52.020;-1.740;2023-08-01T01:07:31;98412.63;;;11.15;100.00
51452;BME280;37521;52.020;-1.740;2023-08-01T01:10:03;98419.81;;;11.13;100.00
51452;BME280;37521;52.020;-1.740;2023-08-01T01:12:34;98422.56;;;11.11;100.00
51452;BME280;37521;52.020;-1.740;2023-08-01T01:15:03;98415.63;;;11.10;100.00
51452;BME280;37521;52.020;-1.740;2023-08-01T01:17:32;98416.66;;;11.08;100.00
51452;BME280;37521;52.020;-1.740;2023-08-01T01:20:00;98421.00;;;11.09;100.00
51452;BME280;37521;52.020;-1.740;2023-08-01T01:22:31;98412.09;;;11.10;100.00
51452;BME280;37521;52.020;-1.740;2023-08-01T01:25:01;98407.19;;;11.05;100.00
51452;BME280;37521;52.020;-1.740;2023-08-01T01:27:31;98416.91;;;11.05;100.00
51452;BME280;37521;52.020;-1.740;2023-08-01T01:30:00;98413.31;;;11.06;100.00
51452;BME280;37521;52.020;-1.740;2023-08-01T01:32:32;98409.94;;;11.04;100.00
51452;BME280;37521;52.020;-1.740;2023-08-01T01:35:02;98416.91;;;11.05;100.00
51452;BME280;37521;52.020;-1.740;2023-08-01T01:37:32;98419.44;;;11.06;100.00
51452;BME280;37521;52.020;-1.740;2023-08-01T01:40:01;98417.88;;;11.04;100.00
51452;BME280;37521;52.020;-1.740;2023-08-01T01:42:29;98422.19;;;11.05;100.00
51452;BME280;37521;52.020;-1.740;2023-08-01T01:44:58;98412.59;;;11.04;100.00
51452;BME280;37521;52.020;-1.740;2023-08-01T01:47:26;98414.47;;;11.02;100.00
51452;BME280;37521;52.020;-1.740;2023-08-01T01:49:55;98424.31;;;11.00;100.00
51452;BME280;37521;52.020;-1.740;2023-08-01T01:52:23;98418.06;;;11.01;100.00
51452;BME280;37521;52.020;-1.740;2023-08-01T01:54:52;98424.53;;;10.97;100.00
51452;BME280;37521;52.020;-1.740;2023-08-01T01:57:21;98426.44;;;10.95;100.00
51452;BME280;37521;52.020;-1.740;2023-08-01T01:59:49;98418.63;;;10.93;100.00
51452;BME280;37521;52.020;-1.740;2023-08-01T02:02:18;98423.06;;;10.93;100.00
51452;BME280;37521;52.020;-1.740;2023-08-01T02:04:47;98432.91;;;10.90;100.00
51452;BME280;37521;52.020;-1.740;2023-08-01T02:07:16;98437.44;;;10.88;100.00
51452;BME280;37521;52.020;-1.740;2023-08-01T02:09:44;98432.16;;;10.88;100.00
51452;BME280;37521;52.020;-1.740;2023-08-01T02:12:14;98433.13;;;10.87;100.00
51452;BME280;37521;52.020;-1.740;2023-08-01T02:14:43;98435.75;;;10.87;100.00
51452;BME280;37521;52.020;-1.740;2023-08-01T02:17:12;98426.03;;;10.88;100.00
51452;BME280;37521;52.020;-1.740;2023-08-01T02:19:40;98429.66;;;10.87;100.00
51452;BME280;37521;52.020;-1.740;2023-08-01T02:22:08;98427.97;;;10.86;100.00
51452;BME280;37521;52.020;-1.740;2023-08-01T02:24:37;98424.38;;;10.87;100.00
51452;BME280;37521;52.020;-1.740;2023-08-01T02:27:05;98429.53;;;10.88;100.00
51452;BME280;37521;52.020;-1.740;2023-08-01T02:29:36;98427.25;;;10.84;100.00
51452;BME280;37521;52.020;-1.740;2023-08-01T02:32:05;98428.09;;;10.84;100.00
51452;BME280;37521;52.020;-1.740;2023-08-01T02:34:35;98428.81;;;10.86;100.00
51452;BME280;37521;52.020;-1.740;2023-08-01T02:37:04;98427.13;;;10.85;100.00
51452;BME280;37521;52.020;-1.740;2023-08-01T02:39:32;98426.28;;;10.85;100.00
51452;BME280;37521;52.020;-1.740;2023-08-01T02:42:01;98424.47;;;10.85;100.00
51452;BME280;37521;52.020;-1.740;2023-08-01T02:44:29;98420.16;;;10.84;100.00
51452;BME280;37521;52.020;-1.740;2023-08-01T02:46:59;98426.50;;;10.82;100.00
51452;BME280;37521;52.020;-1.740;2023-08-01T02:49:28;98422.03;;;10.82;100.00
51452;BME280;37521;52.020;-1.740;2023-08-01T02:51:56;98413.66;;;10.77;100.00
51452;BME280;37521;52.020;-1.740;2023-08-01T02:54:25;98407.59;;;10.75;100.00
51452;BME280;37521;52.020;-1.740;2023-08-01T02:56:54;98419.84;;;10.76;100.00
51452;BME280;37521;52.020;-1.740;2023-08-01T02:59:22;98414.81;;;10.73;100.00
51452;BME280;37521;52.020;-1.740;2023-08-01T03:01:51;98413.97;;;10.73;100.00
51452;BME280;37521;52.020;-1.740;2023-08-01T03:04:21;98406.25;;;10.70;100.00
51452;BME280;37521;52.020;-1.740;2023-08-01T03:07:09;98410.94;;;10.66;100.00
51452;BME280;37521;52.020;-1.740;2023-08-01T03:09:38;98411.13;;;10.63;100.00
51452;BME280;37521;52.020;-1.740;2023-08-01T03:12:06;98413.78;;;10.63;100.00
51452;BME280;37521;52.020;-1.740;2023-08-01T03:14:35;98410.19;;;10.64;100.00
51452;BME280;37521;52.020;-1.740;2023-08-01T03:17:04;98420.00;;;10.62;100.00
51452;BME280;37521;52.020;-1.740;2023-08-01T03:19:33;98423.59;;;10.61;100.00
51452;BME280;37521;52.020;-1.740;2023-08-01T03:22:02;98427.44;;;10.57;100.00
51452;BME280;37521;52.020;-1.740;2023-08-01T03:24:30;98428.34;;;10.56;100.00
51452;BME280;37521;52.020;-1.740;2023-08-01T03:27:00;98422.34;;;10.54;100.00
51452;BME280;37521;52.020;-1.740;2023-08-01T03:29:28;98418.75;;;10.55;100.00
51452;BME280;37521;52.020;-1.740;2023-08-01T03:31:57;98416.88;;;10.57;100.00
51452;BME280;37521;52.020;-1.740;2023-08-01T03:34:26;98416.66;;;10.60;100.00
51452;BME280;37521;52.020;-1.740;2023-08-01T03:36:56;98413.88;;;10.61;100.00
51452;BME280;37521;52.020;-1.740;2023-08-01T03:39:25;98413.69;;;10.64;100.00
51452;BME280;37521;52.020;-1.740;2023-08-01T03:41:53;98412.59;;;10.67;100.00
51452;BME280;37521;52.020;-1.740;2023-08-01T03:44:22;98415.13;;;10.69;100.00
51452;BME280;37521;52.020;-1.740;2023-08-01T03:46:50;98408.16;;;10.68;100.00
51452;BME280;37521;52.020;-1.740;2023-08-01T03:49:20;98417.69;;;10.70;100.00
51452;BME280;37521;52.020;-1.740;2023-08-01T03:51:49;98415.53;;;10.75;100.00
51452;BME280;37521;52.020;-1.740;2023-08-01T03:54:20;98417.22;;;10.76;100.00
51452;BME280;37521;52.020;-1.740;2023-08-01T03:56:48;98414.69;;;10.75;100.00
51452;BME280;37521;52.020;-1.740;2023-08-01T03:59:18;98415.53;;;10.75;100.00
51452;BME280;37521;52.020;-1.740;2023-08-01T04:01:46;98422.59;;;10.75;100.00
51452;BME280;37521;52.020;-1.740;2023-08-01T04:04:15;98426.09;;;10.75;100.00
51452;BME280;37521;52.020;-1.740;2023-08-01T04:06:44;98418.69;;;10.80;100.00
51452;BME280;37521;52.020;-1.740;2023-08-01T04:09:13;98422.03;;;10.82;100.00
51452;BME280;37521;52.020;-1.740;2023-08-01T04:11:43;98425.66;;;10.81;100.00
51452;BME280;37521;52.020;-1.740;2023-08-01T04:14:11;98429.47;;;10.77;100.00
51452;BME280;37521;52.020;-1.740;2023-08-01T04:16:41;98433.69;;;10.80;100.00
51452;BME280;37521;52.020;-1.740;2023-08-01T04:19:09;98425.66;;;10.81;100.00
51452;BME280;37521;52.020;-1.740;2023-08-01T04:21:37;98429.25;;;10.80;100.00
51452;BME280;37521;52.020;-1.740;2023-08-01T04:24:06;98434.53;;;10.80;100.00
51452;BME280;37521;52.020;-1.740;2023-08-01T04:26:34;98427.31;;;10.82;100.00
51452;BME280;37521;52.020;-1.740;2023-08-01T04:29:06;98434.31;;;10.83;100.00
51452;BME280;37521;52.020;-1.740;2023-08-01T04:31:34;98423.97;;;10.80;100.00
51452;BME280;37521;52.020;-1.740;2023-08-01T04:34:03;98433.06;;;10.76;100.00
51452;BME280;37521;52.020;-1.740;2023-08-01T04:36:31;98428.00;;;10.73;100.00
51452;BME280;37521;52.020;-1.740;2023-08-01T04:39:00;98428.31;;;10.69;100.00
51452;BME280;37521;52.020;-1.740;2023-08-01T04:41:28;98428.31;;;10.69;100.00
51452;BME280;37521;52.020;-1.740;2023-08-01T04:43:57;98428.44;;;10.67;100.00
51452;BME280;37521;52.020;-1.740;2023-08-01T04:46:26;98433.97;;;10.64;100.00
51452;BME280;37521;52.020;-1.740;2023-08-01T04:48:55;98433.31;;;10.60;100.00
51452;BME280;37521;52.020;-1.740;2023-08-01T04:51:23;98440.41;;;10.60;100.00
51452;BME280;37521;52.020;-1.740;2023-08-01T04:53:52;98430.78;;;10.59;100.00
51452;BME280;37521;52.020;-1.740;2023-08-01T04:56:20;98432.34;;;10.61;100.00
51452;BME280;37521;52.020;-1.740;2023-08-01T04:58:48;98427.19;;;10.60;100.00
51452;BME280;37521;52.020;-1.740;2023-08-01T05:01:17;98423.84;;;10.58;100.00
51452;BME280;37521;52.020;-1.740;2023-08-01T05:03:47;98433.44;;;10.59;100.00
51452;BME280;37521;52.020;-1.740;2023-08-01T05:06:15;98441.34;;;10.59;100.00
51452;BME280;37521;52.020;-1.740;2023-08-01T05:08:44;98438.00;;;10.57;100.00
51452;BME280;37521;52.020;-1.740;2023-08-01T05:11:12;98435.66;;;10.52;100.00
51452;BME280;37521;52.020;-1.740;2023-08-01T05:13:41;98445.38;;;10.52;100.00
51452;BME280;37521;52.020;-1.740;2023-08-01T05:16:09;98449.69;;;10.53;100.00
51452;BME280;37521;52.020;-1.740;2023-08-01T05:18:38;98459.09;;;10.57;100.00
51452;BME280;37521;52.020;-1.740;2023-08-01T05:21:07;98455.50;;;10.58;100.00
51452;BME280;37521;52.020;-1.740;2023-08-01T05:23:36;98465.09;;;10.59;100.00
51452;BME280;37521;52.020;-1.740;2023-08-01T05:26:04;98453.59;;;10.60;100.00
51452;BME280;37521;52.020;-1.740;2023-08-01T05:28:34;98472.78;;;10.62;100.00
51452;BME280;37521;52.020;-1.740;2023-08-01T05:31:03;98469.44;;;10.60;100.00
51452;BME280;37521;52.020;-1.740;2023-08-01T05:33:31;98470.38;;;10.59;100.00
51452;BME280;37521;52.020;-1.740;2023-08-01T05:36:00;98463.44;;;10.58;100.00
51452;BME280;37521;52.020;-1.740;2023-08-01T05:38:31;98469.66;;;10.57;100.00
51452;BME280;37521;52.020;-1.740;2023-08-01T05:40:59;98460.88;;;10.56;100.00
51452;BME280;37521;52.020;-1.740;2023-08-01T05:43:28;98464.38;;;10.57;100.00
51452;BME280;37521;52.020;-1.740;2023-08-01T05:45:56;98468.47;;;10.61;100.00
51452;BME280;37521;52.020;-1.740;2023-08-01T05:48:25;98464.69;;;10.65;100.00
51452;BME280;37521;52.020;-1.740;2023-08-01T05:50:53;98474.69;;;10.73;100.00
51452;BME280;37521;52.020;-1.740;2023-08-01T05:53:22;98470.53;;;10.81;100.00
51452;BME280;37521;52.020;-1.740;2023-08-01T05:55:53;98476.97;;;10.90;100.00
51452;BME280;37521;52.020;-1.740;2023-08-01T05:58:22;98481.91;;;10.95;100.00
51452;BME280;37521;52.020;-1.740;2023-08-01T06:00:52;98474.81;;;10.95;100.00
51452;BME280;37521;52.020;-1.740;2023-08-01T06:03:21;98486.97;;;10.98;100.00
51452;BME280;37521;52.020;-1.740;2023-08-01T06:05:49;98476.06;;;11.02;100.00
51452;BME280;37521;52.020;-1.740;2023-08-01T06:08:17;98479.84;;;11.11;100.00
51452;BME280;37521;52.020;-1.740;2023-08-01T06:10:46;98490.81;;;11.17;100.00
51452;BME280;37521;52.020;-1.740;2023-08-01T06:13:16;98494.06;;;11.21;100.00
51452;BME280;37521;52.020;-1.740;2023-08-01T06:15:44;98492.13;;;11.23;100.00
51452;BME280;37521;52.020;-1.740;2023-08-01T06:18:13;98484.59;;;11.30;100.00
51452;BME280;37521;52.020;-1.740;2023-08-01T06:20:41;98488.72;;;11.34;100.00
51452;BME280;37521;52.020;-1.740;2023-08-01T06:23:11;98495.34;;;11.39;100.00
51452;BME280;37521;52.020;-1.740;2023-08-01T06:25:39;98509.09;;;11.44;100.00
51452;BME280;37521;52.020;-1.740;2023-08-01T06:28:08;98501.75;;;11.48;100.00
51452;BME280;37521;52.020;-1.740;2023-08-01T06:30:38;98496.97;;;11.53;100.00
51452;BME280;37521;52.020;-1.740;2023-08-01T06:33:06;98499.50;;;11.55;100.00
51452;BME280;37521;52.020;-1.740;2023-08-01T06:35:35;98505.75;;;11.54;100.00
51452;BME280;37521;52.020;-1.740;2023-08-01T06:38:03;98504.78;;;11.55;100.00
51452;BME280;37521;52.020;-1.740;2023-08-01T06:40:32;98504.13;;;11.64;100.00
51452;BME280;37521;52.020;-1.740;2023-08-01T06:43:00;98493.06;;;11.70;100.00
51452;BME280;37521;52.020;-1.740;2023-08-01T06:45:28;98487.31;;;11.76;100.00
51452;BME280;37521;52.020;-1.740;2023-08-01T06:47:58;98491.41;;;11.80;100.00
51452;BME280;37521;52.020;-1.740;2023-08-01T06:50:27;98488.78;;;11.80;100.00
51452;BME280;37521;52.020;-1.740;2023-08-01T06:52:56;98489.53;;;11.82;100.00
51452;BME280;37521;52.020;-1.740;2023-08-01T06:55:26;98497.25;;;11.85;100.00
51452;BME280;37521;52.020;-1.740;2023-08-01T06:57:54;98508.41;;;11.89;100.00
51452;BME280;37521;52.020;-1.740;2023-08-01T07:00:22;98507.13;;;11.94;100.00
51452;BME280;37521;52.020;-1.740;2023-08-01T07:02:51;98513.88;;;11.98;100.00
51452;BME280;37521;52.020;-1.740;2023-08-01T07:05:21;98505.19;;;11.96;100.00
51452;BME280;37521;52.020;-1.740;2023-08-01T07:07:49;98506.91;;;11.97;100.00
51452;BME280;37521;52.020;-1.740;2023-08-01T07:10:18;98505.94;;;11.98;100.00
51452;BME280;37521;52.020;-1.740;2023-08-01T07:12:47;98508.13;;;12.05;100.00
51452;BME280;37521;52.020;-1.740;2023-08-01T07:15:15;98514.00;;;12.08;100.00
51452;BME280;37521;52.020;-1.740;2023-08-01T07:17:44;98513.16;;;12.08;100.00
51452;BME280;37521;52.020;-1.740;2023-08-01T07:20:13;98515.47;;;12.12;100.00
51452;BME280;37521;52.020;-1.740;2023-08-01T07:22:43;98511.00;;;12.13;100.00
51452;BME280;37521;52.020;-1.740;2023-08-01T07:25:11;98509.81;;;12.17;100.00
51452;BME280;37521;52.020;-1.740;2023-08-01T07:27:40;98511.38;;;12.19;100.00
51452;BME280;37521;52.020;-1.740;2023-08-01T07:30:09;98515.59;;;12.22;100.00
51452;BME280;37521;52.020;-1.740;2023-08-01T07:32:38;98512.34;;;12.30;100.00
51452;BME280;37521;52.020;-1.740;2023-08-01T07:35:07;98517.56;;;12.31;100.00
51452;BME280;37521;52.020;-1.740;2023-08-01T07:37:36;98512.13;;;12.33;100.00
51452;BME280;37521;52.020;-1.740;2023-08-01T07:40:07;98513.94;;;12.32;100.00
51452;BME280;37521;52.020;-1.740;2023-08-01T07:42:36;98521.25;;;12.28;100.00
51452;BME280;37521;52.020;-1.740;2023-08-01T07:45:05;98521.63;;;12.35;100.00
51452;BME280;37521;52.020;-1.740;2023-08-01T07:47:34;98521.16;;;12.41;100.00
51452;BME280;37521;52.020;-1.740;2023-08-01T07:50:03;98527.53;;;12.50;100.00
51452;BME280;37521;52.020;-1.740;2023-08-01T07:52:32;98529.09;;;12.64;100.00
51452;BME280;37521;52.020;-1.740;2023-08-01T07:55:00;98535.25;;;12.75;100.00
51452;BME280;37521;52.020;-1.740;2023-08-01T07:57:30;98543.69;;;12.80;100.00
51452;BME280;37521;52.020;-1.740;2023-08-01T07:59:59;98551.75;;;12.79;100.00
51452;BME280;37521;52.020;-1.740;2023-08-01T08:02:47;98543.81;;;12.79;100.00
51452;BME280;37521;52.020;-1.740;2023-08-01T08:05:17;98536.69;;;12.79;100.00
51452;BME280;37521;52.020;-1.740;2023-08-01T08:07:46;98534.91;;;12.80;100.00
51452;BME280;37521;52.020;-1.740;2023-08-01T08:10:15;98528.41;;;12.84;100.00
51452;BME280;37521;52.020;-1.740;2023-08-01T08:12:45;98528.41;;;12.84;100.00
51452;BME280;37521;52.020;-1.740;2023-08-01T08:15:14;98533.69;;;12.84;100.00
51452;BME280;37521;52.020;-1.740;2023-08-01T08:17:43;98541.88;;;12.92;100.00
51452;BME280;37521;52.020;-1.740;2023-08-01T08:20:11;98545.09;;;12.96;100.00
51452;BME280;37521;52.020;-1.740;2023-08-01T08:22:40;98530.03;;;13.07;100.00
51452;BME280;37521;52.020;-1.740;2023-08-01T08:25:08;98543.78;;;13.13;100.00
51452;BME280;37521;52.020;-1.740;2023-08-01T08:27:37;98543.53;;;13.16;100.00
51452;BME280;37521;52.020;-1.740;2023-08-01T08:30:08;98554.63;;;13.21;100.00
51452;BME280;37521;52.020;-1.740;2023-08-01T08:32:37;98544.84;;;13.32;100.00
51452;BME280;37521;52.020;-1.740;2023-08-01T08:35:06;98543.03;;;13.44;100.00
51452;BME280;37521;52.020;-1.740;2023-08-01T08:37:34;98536.00;;;13.43;100.00
51452;BME280;37521;52.020;-1.740;2023-08-01T08:40:04;98538.44;;;13.46;100.00
51452;BME280;37521;52.020;-1.740;2023-08-01T08:42:34;98546.13;;;13.49;100.00
51452;BME280;37521;52.020;-1.740;2023-08-01T08:45:04;98550.09;;;13.55;100.00
51452;BME280;37521;52.020;-1.740;2023-08-01T08:47:38;98538.50;;;13.56;100.00
51452;BME280;37521;52.020;-1.740;2023-08-01T08:50:10;98542.00;;;13.56;100.00
51452;BME280;37521;52.020;-1.740;2023-08-01T08:52:40;98542.69;;;13.70;100.00
51452;BME280;37521;52.020;-1.740;2023-08-01T08:55:08;98542.44;;;13.73;100.00
51452;BME280;37521;52.020;-1.740;2023-08-01T08:57:38;98548.66;;;13.83;100.00
51452;BME280;37521;52.020;-1.740;2023-08-01T09:00:08;98552.47;;;13.90;100.00
51452;BME280;37521;52.020;-1.740;2023-08-01T09:02:38;98553.09;;;13.94;100.00
51452;BME280;37521;52.020;-1.740;2023-08-01T09:05:07;98554.91;;;13.93;100.00
51452;BME280;37521;52.020;-1.740;2023-08-01T09:07:41;98546.47;;;13.88;100.00
51452;BME280;37521;52.020;-1.740;2023-08-01T09:10:10;98542.16;;;13.76;100.00
51452;BME280;37521;52.020;-1.740;2023-08-01T09:12:38;98557.63;;;13.71;100.00
51452;BME280;37521;52.020;-1.740;2023-08-01T09:15:07;98553.06;;;13.73;100.00
51452;BME280;37521;52.020;-1.740;2023-08-01T09:17:49;98557.84;;;13.79;100.00
51452;BME280;37521;52.020;-1.740;2023-08-01T09:20:17;98555.53;;;13.85;100.00
51452;BME280;37521;52.020;-1.740;2023-08-01T09:22:47;98558.03;;;13.98;100.00
51452;BME280;37521;52.020;-1.740;2023-08-01T09:25:16;98556.06;;;14.00;100.00
51452;BME280;37521;52.020;-1.740;2023-08-01T09:27:45;98556.63;;;14.04;100.00
51452;BME280;37521;52.020;-1.740;2023-08-01T09:30:14;98561.56;;;14.08;100.00
51452;BME280;37521;52.020;-1.740;2023-08-01T09:32:53;98556.72;;;14.13;100.00
51452;BME280;37521;52.020;-1.740;2023-08-01T09:35:22;98559.44;;;14.23;100.00
51452;BME280;37521;52.020;-1.740;2023-08-01T09:37:51;98544.59;;;14.41;100.00
51452;BME280;37521;52.020;-1.740;2023-08-01T09:40:20;98550.06;;;14.61;100.00
51452;BME280;37521;52.020;-1.740;2023-08-01T09:42:48;98562.16;;;14.75;100.00
51452;BME280;37521;52.020;-1.740;2023-08-01T09:45:18;98549.31;;;14.80;100.00
51452;BME280;37521;52.020;-1.740;2023-08-01T09:47:46;98561.88;;;14.78;100.00
51452;BME280;37521;52.020;-1.740;2023-08-01T09:50:22;98566.03;;;14.70;100.00
51452;BME280;37521;52.020;-1.740;2023-08-01T09:52:51;98563.25;;;14.72;100.00
51452;BME280;37521;52.020;-1.740;2023-08-01T09:55:25;98562.81;;;14.67;100.00
51452;BME280;37521;52.020;-1.740;2023-08-01T09:57:57;98559.69;;;14.62;100.00
51452;BME280;37521;52.020;-1.740;2023-08-01T10:00:26;98561.97;;;14.66;100.00
51452;BME280;37521;52.020;-1.740;2023-08-01T10:02:57;98555.16;;;14.74;100.00
51452;BME280;37521;52.020;-1.740;2023-08-01T10:05:31;98556.03;;;14.84;100.00
51452;BME280;37521;52.020;-1.740;2023-08-01T10:08:00;98552.22;;;14.77;100.00
51452;BME280;37521;52.020;-1.740;2023-08-01T10:10:29;98551.25;;;14.78;100.00
51452;BME280;37521;52.020;-1.740;2023-08-01T10:13:00;98550.22;;;14.99;100.00
51452;BME280;37521;52.020;-1.740;2023-08-01T10:15:29;98544.69;;;15.12;100.00
51452;BME280;37521;52.020;-1.740;2023-08-01T10:17:58;98551.53;;;15.15;100.00
51452;BME280;37521;52.020;-1.740;2023-08-01T10:20:27;98553.91;;;15.18;100.00
51452;BME280;37521;52.020;-1.740;2023-08-01T10:22:58;98564.44;;;15.19;100.00
51452;BME280;37521;52.020;-1.740;2023-08-01T10:25:29;98564.00;;;15.24;100.00
51452;BME280;37521;52.020;-1.740;2023-08-01T10:27:59;98561.34;;;15.24;100.00
51452;BME280;37521;52.020;-1.740;2023-08-01T10:30:28;98558.13;;;15.20;100.00
51452;BME280;37521;52.020;-1.740;2023-08-01T10:32:58;98558.44;;;15.27;100.00
51452;BME280;37521;52.020;-1.740;2023-08-01T10:35:34;98563.34;;;15.32;100.00
51452;BME280;37521;52.020;-1.740;2023-08-01T10:38:08;98558.44;;;15.37;100.00
51452;BME280;37521;52.020;-1.740;2023-08-01T10:40:39;98563.59;;;15.29;100.00
51452;BME280;37521;52.020;-1.740;2023-08-01T10:43:19;98561.38;;;15.34;100.00
51452;BME280;37521;52.020;-1.740;2023-08-01T10:46:00;98565.03;;;15.33;100.00
51452;BME280;37521;52.020;-1.740;2023-08-01T10:48:29;98567.94;;;15.30;100.00
51452;BME280;37521;52.020;-1.740;2023-08-01T10:50:58;98571.31;;;15.32;100.00
51452;BME280;37521;52.020;-1.740;2023-08-01T10:53:39;98577.28;;;15.24;100.00
51452;BME280;37521;52.020;-1.740;2023-08-01T10:56:16;98578.50;;;15.10;100.00
51452;BME280;37521;52.020;-1.740;2023-08-01T10:58:46;98578.63;;;14.99;100.00
51452;BME280;37521;52.020;-1.740;2023-08-01T11:01:15;98587.88;;;15.05;100.00
51452;BME280;37521;52.020;-1.740;2023-08-01T11:03:43;98570.97;;;15.15;100.00
51452;BME280;37521;52.020;-1.740;2023-08-01T11:06:12;98567.09;;;15.19;100.00
51452;BME280;37521;52.020;-1.740;2023-08-01T11:08:42;98568.75;;;15.20;100.00
51452;BME280;37521;52.020;-1.740;2023-08-01T11:11:12;98571.81;;;15.16;100.00
51452;BME280;37521;52.020;-1.740;2023-08-01T11:13:50;98572.66;;;15.16;100.00
51452;BME280;37521;52.020;-1.740;2023-08-01T11:16:19;98567.25;;;15.27;100.00
51452;BME280;37521;52.020;-1.740;2023-08-01T11:18:47;98567.41;;;15.36;100.00
51452;BME280;37521;52.020;-1.740;2023-08-01T11:21:25;98569.06;;;15.27;100.00
51452;BME280;37521;52.020;-1.740;2023-08-01T11:23:56;98583.34;;;15.26;100.00
51452;BME280;37521;52.020;-1.740;2023-08-01T11:26:25;98578.84;;;15.26;100.00
51452;BME280;37521;52.020;-1.740;2023-08-01T11:28:54;98574.69;;;15.34;100.00
51452;BME280;37521;52.020;-1.740;2023-08-01T11:31:22;98572.63;;;15.47;100.00
51452;BME280;37521;52.020;-1.740;2023-08-01T11:33:55;98566.88;;;15.51;100.00
51452;BME280;37521;52.020;-1.740;2023-08-01T11:36:26;98559.69;;;15.92;100.00
51452;BME280;37521;52.020;-1.740;2023-08-01T11:38:58;98558.06;;;16.48;100.00
51452;BME280;37521;52.020;-1.740;2023-08-01T11:41:28;98559.47;;;16.52;100.00
51452;BME280;37521;52.020;-1.740;2023-08-01T11:44:01;98564.81;;;16.32;100.00
51452;BME280;37521;52.020;-1.740;2023-08-01T11:46:31;98563.84;;;16.14;100.00
51452;BME280;37521;52.020;-1.740;2023-08-01T11:49:00;98573.66;;;16.04;100.00
51452;BME280;37521;52.020;-1.740;2023-08-01T11:51:30;98572.69;;;16.05;100.00
51452;BME280;37521;52.020;-1.740;2023-08-01T11:54:00;98566.09;;;16.09;100.00
51452;BME280;37521;52.020;-1.740;2023-08-01T11:56:30;98559.94;;;16.08;100.00
51452;BME280;37521;52.020;-1.740;2023-08-01T11:58:58;98561.19;;;16.14;100.00
51452;BME280;37521;52.020;-1.740;2023-08-01T12:01:27;98556.00;;;16.22;100.00
51452;BME280;37521;52.020;-1.740;2023-08-01T12:03:56;98559.63;;;16.41;100.00
51452;BME280;37521;52.020;-1.740;2023-08-01T12:06:25;98560.53;;;16.69;100.00
51452;BME280;37521;52.020;-1.740;2023-08-01T12:08:54;98561.22;;;16.80;100.00
51452;BME280;37521;52.020;-1.740;2023-08-01T12:11:24;98565.59;;;16.62;100.00
51452;BME280;37521;52.020;-1.740;2023-08-01T12:14:02;98568.03;;;16.46;100.00
51452;BME280;37521;52.020;-1.740;2023-08-01T12:16:31;98567.88;;;16.47;100.00
51452;BME280;37521;52.020;-1.740;2023-08-01T12:19:00;98569.13;;;16.72;100.00
51452;BME280;37521;52.020;-1.740;2023-08-01T12:21:28;98552.69;;;17.04;100.00
51452;BME280;37521;52.020;-1.740;2023-08-01T12:23:57;98539.56;;;17.66;100.00
51452;BME280;37521;52.020;-1.740;2023-08-01T12:26:27;98528.53;;;17.96;100.00
51452;BME280;37521;52.020;-1.740;2023-08-01T12:28:56;98541.66;;;17.90;100.00
51452;BME280;37521;52.020;-1.740;2023-08-01T12:31:24;98558.25;;;17.66;100.00
51452;BME280;37521;52.020;-1.740;2023-08-01T12:33:53;98558.38;;;17.47;100.00
51452;BME280;37521;52.020;-1.740;2023-08-01T12:36:22;98547.75;;;17.37;100.00
51452;BME280;37521;52.020;-1.740;2023-08-01T12:38:51;98542.41;;;17.37;100.00
51452;BME280;37521;52.020;-1.740;2023-08-01T12:41:20;98546.16;;;17.44;100.00
51452;BME280;37521;52.020;-1.740;2023-08-01T12:43:50;98532.78;;;17.54;100.00
51452;BME280;37521;52.020;-1.740;2023-08-01T12:46:18;98526.22;;;18.02;100.00
51452;BME280;37521;52.020;-1.740;2023-08-01T12:48:47;98534.47;;;18.78;100.00
51452;BME280;37521;52.020;-1.740;2023-08-01T12:51:15;98541.34;;;19.15;100.00